sensor_id;sensor_type;location;lat;lon;timestamp;temperature;humidity
10083;DHT22;5080;48.528;8.078;2023-02-28T00:00:26;2.40;99.90
10083;DHT22;5080;48.528;8.078;2023-02-28T00:02:52;2.40;99.90
10083;DHT22;5080;48.528;8.078;2023-02-28T00:05:21;2.40;99.90
10083;DHT22;5080;48.528;8.078;2023-02-28T00:07:48;2.40;99.90
10083;DHT22;5080;48.528;8.078;2023-02-28T00:10:18;2.40;99.90
10083;DHT22;5080;48.528;8.078;2023-02-28T00:12:46;2.30;99.90
10083;DHT22;5080;48.528;8.078;2023-02-28T00:15:13;2.30;99.90
10083;DHT22;5080;48.528;8.078;2023-02-28T00:17:40;2.30;99.90
10083;DHT22;5080;48.528;8.078;2023-02-28T00:20:09;2.40;99.90
10083;DHT22;5080;48.528;8.078;2023-02-28T00:22:38;2.30;99.90
10083;DHT22;5080;48.528;8.078;2023-02-28T00:25:06;2.40;99.90
10083;DHT22;5080;48.528;8.078;2023-02-28T00:27:35;2.40;99.90
10083;DHT22;5080;48.528;8.078;2023-02-28T00:30:02;2.40;99.90
10083;DHT22;5080;48.528;8.078;2023-02-28T00:32:29;2.40;99.90
10083;DHT22;5080;48.528;8.078;2023-02-28T00:34:56;2.40;99.90
10083;DHT22;5080;48.528;8.078;2023-02-28T00:37:23;2.40;99.90
10083;DHT22;5080;48.528;8.078;2023-02-28T00:39:50;2.40;99.90
10083;DHT22;5080;48.528;8.078;2023-02-28T00:42:17;2.30;99.90
10083;DHT22;5080;48.528;8.078;2023-02-28T00:44:45;2.20;99.90
10083;DHT22;5080;48.528;8.078;2023-02-28T00:47:12;2.20;99.90
10083;DHT22;5080;48.528;8.078;2023-02-28T00:49:39;2.30;99.90
10083;DHT22;5080;48.528;8.078;2023-02-28T00:52:06;2.30;99.90
10083;DHT22;5080;48.528;8.078;2023-02-28T00:54:32;2.20;99.90
10083;DHT22;5080;48.528;8.078;2023-02-28T00:56:59;2.20;99.90
10083;DHT22;5080;48.528;8.078;2023-02-28T00:59:26;2.10;99.90
10083;DHT22;5080;48.528;8.078;2023-02-28T01:01:54;2.10;99.90
10083;DHT22;5080;48.528;8.078;2023-02-28T01:04:21;2.20;99.90
10083;DHT22;5080;48.528;8.078;2023-02-28T01:06:48;2.20;99.90
10083;DHT22;5080;48.528;8.078;2023-02-28T01:09:15;2.10;99.90
10083;DHT22;5080;48.528;8.078;2023-02-28T01:11:42;2.00;99.90
10083;DHT22;5080;48.528;8.078;2023-02-28T01:14:12;2.00;99.90
10083;DHT22;5080;48.528;8.078;2023-02-28T01:16:40;2.10;99.90
10083;DHT22;5080;48.528;8.078;2023-02-28T01:19:08;2.10;99.90
10083;DHT22;5080;48.528;8.078;2023-02-28T01:21:35;2.00;99.90
10083;DHT22;5080;48.528;8.078;2023-02-28T01:24:03;2.00;99.90
10083;DHT22;5080;48.528;8.078;2023-02-28T01:26:31;2.10;99.90
10083;DHT22;5080;48.528;8.078;2023-02-28T01:28:58;2.10;99.90
10083;DHT22;5080;48.528;8.078;2023-02-28T01:31:25;2.00;99.90
10083;DHT22;5080;48.528;8.078;2023-02-28T01:33:52;2.10;99.90
10083;DHT22;5080;48.528;8.078;2023-02-28T01:36:22;2.10;99.90
10083;DHT22;5080;48.528;8.078;2023-02-28T01:38:50;1.90;99.90
10083;DHT22;5080;48.528;8.078;2023-02-28T01:41:20;1.80;99.90
10083;DHT22;5080;48.528;8.078;2023-02-28T01:44:00;1.90;99.90
10083;DHT22;5080;48.528;8.078;2023-02-28T01:46:30;1.80;99.90
10083;DHT22;5080;48.528;8.078;2023-02-28T01:49:02;1.70;99.90
10083;DHT22;5080;48.528;8.078;2023-02-28T01:51:37;1.60;99.90
10083;DHT22;5080;48.528;8.078;2023-02-28T01:54:08;1.70;99.90
10083;DHT22;5080;48.528;8.078;2023-02-28T01:56:41;1.60;99.90
10083;DHT22;5080;48.528;8.078;2023-02-28T01:59:09;1.60;99.90
10083;DHT22;5080;48.528;8.078;2023-02-28T02:01:36;1.60;99.90
10083;DHT22;5080;48.528;8.078;2023-02-28T02:04:04;1.50;99.90
10083;DHT22;5080;48.528;8.078;2023-02-28T02:06:37;1.50;99.90
10083;DHT22;5080;48.528;8.078;2023-02-28T02:09:04;1.50;99.90
10083;DHT22;5080;48.528;8.078;2023-02-28T02:11:32;1.50;99.90
10083;DHT22;5080;48.528;8.078;2023-02-28T02:14:24;1.50;99.90
10083;DHT22;5080;48.528;8.078;2023-02-28T02:17:02;1.60;99.90
10083;DHT22;5080;48.528;8.078;2023-02-28T02:20:04;1.50;99.90
10083;DHT22;5080;48.528;8.078;2023-02-28T02:25:39;1.30;99.90
10083;DHT22;5080;48.528;8.078;2023-02-28T02:28:41;1.30;99.90
10083;DHT22;5080;48.528;8.078;2023-02-28T02:31:29;1.40;99.90
10083;DHT22;5080;48.528;8.078;2023-02-28T02:37:17;1.50;99.90
10083;DHT22;5080;48.528;8.078;2023-02-28T02:42:21;1.40;99.90
10083;DHT22;5080;48.528;8.078;2023-02-28T02:44:55;1.50;99.90
10083;DHT22;5080;48.528;8.078;2023-02-28T02:47:27;1.60;99.90
10083;DHT22;5080;48.528;8.078;2023-02-28T02:49:59;1.70;99.90
10083;DHT22;5080;48.528;8.078;2023-02-28T02:52:36;1.70;99.90
10083;DHT22;5080;48.528;8.078;2023-02-28T02:55:06;1.70;99.90
10083;DHT22;5080;48.528;8.078;2023-02-28T02:57:40;1.60;99.90
10083;DHT22;5080;48.528;8.078;2023-02-28T03:00:10;1.60;99.90
10083;DHT22;5080;48.528;8.078;2023-02-28T03:02:38;1.60;99.90
10083;DHT22;5080;48.528;8.078;2023-02-28T03:05:14;1.50;99.90
10083;DHT22;5080;48.528;8.078;2023-02-28T03:07:42;1.40;99.90
10083;DHT22;5080;48.528;8.078;2023-02-28T03:10:32;1.30;99.90
10083;DHT22;5080;48.528;8.078;2023-02-28T03:13:14;1.20;99.90
10083;DHT22;5080;48.528;8.078;2023-02-28T03:15:52;1.30;99.90
10083;DHT22;5080;48.528;8.078;2023-02-28T03:18:28;1.30;99.90
10083;DHT22;5080;48.528;8.078;2023-02-28T03:21:04;1.30;99.90
10083;DHT22;5080;48.528;8.078;2023-02-28T03:23:38;1.10;99.90
10083;DHT22;5080;48.528;8.078;2023-02-28T03:26:11;1.10;99.90
10083;DHT22;5080;48.528;8.078;2023-02-28T03:28:43;1.00;99.90
10083;DHT22;5080;48.528;8.078;2023-02-28T03:31:16;0.80;99.90
10083;DHT22;5080;48.528;8.078;2023-02-28T03:33:48;0.80;99.90
10083;DHT22;5080;48.528;8.078;2023-02-28T03:36:24;0.80;99.90
10083;DHT22;5080;48.528;8.078;2023-02-28T03:38:55;0.80;99.90
10083;DHT22;5080;48.528;8.078;2023-02-28T03:41:30;0.80;99.90
10083;DHT22;5080;48.528;8.078;2023-02-28T03:44:01;0.90;99.90
10083;DHT22;5080;48.528;8.078;2023-02-28T03:46:32;0.80;99.90
10083;DHT22;5080;48.528;8.078;2023-02-28T03:49:03;0.70;99.90
10083;DHT22;5080;48.528;8.078;2023-02-28T03:51:35;0.70;99.90
10083;DHT22;5080;48.528;8.078;2023-02-28T03:54:06;0.70;99.90
10083;DHT22;5080;48.528;8.078;2023-02-28T03:56:38;0.70;99.90
10083;DHT22;5080;48.528;8.078;2023-02-28T03:59:09;0.60;99.90
10083;DHT22;5080;48.528;8.078;2023-02-28T04:01:41;0.60;99.90
10083;DHT22;5080;48.528;8.078;2023-02-28T04:04:09;0.50;99.90
10083;DHT22;5080;48.528;8.078;2023-02-28T04:06:38;0.60;99.90
10083;DHT22;5080;48.528;8.078;2023-02-28T04:09:07;0.60;99.90
10083;DHT22;5080;48.528;8.078;2023-02-28T04:11:36;0.60;99.90
10083;DHT22;5080;48.528;8.078;2023-02-28T04:14:04;0.60;99.90
10083;DHT22;5080;48.528;8.078;2023-02-28T04:16:32;0.60;99.90
10083;DHT22;5080;48.528;8.078;2023-02-28T04:18:59;0.70;99.90
10083;DHT22;5080;48.528;8.078;2023-02-28T04:21:28;0.70;99.90
10083;DHT22;5080;48.528;8.078;2023-02-28T04:23:56;0.70;99.90
10083;DHT22;5080;48.528;8.078;2023-02-28T04:26:27;0.70;99.90
10083;DHT22;5080;48.528;8.078;2023-02-28T04:28:55;0.70;99.90
10083;DHT22;5080;48.528;8.078;2023-02-28T04:31:22;0.70;99.90
10083;DHT22;5080;48.528;8.078;2023-02-28T04:33:48;0.80;99.90
10083;DHT22;5080;48.528;8.078;2023-02-28T04:36:15;0.90;99.90
10083;DHT22;5080;48.528;8.078;2023-02-28T04:38:43;0.90;99.90
10083;DHT22;5080;48.528;8.078;2023-02-28T04:41:12;1.00;99.90
10083;DHT22;5080;48.528;8.078;2023-02-28T04:43:39;1.00;99.90
10083;DHT22;5080;48.528;8.078;2023-02-28T04:46:06;1.10;99.90
10083;DHT22;5080;48.528;8.078;2023-02-28T04:48:35;1.10;99.90
10083;DHT22;5080;48.528;8.078;2023-02-28T04:51:02;1.20;99.90
10083;DHT22;5080;48.528;8.078;2023-02-28T04:53:30;1.10;99.90
10083;DHT22;5080;48.528;8.078;2023-02-28T04:55:57;0.90;99.90
10083;DHT22;5080;48.528;8.078;2023-02-28T04:58:25;0.90;99.90
10083;DHT22;5080;48.528;8.078;2023-02-28T05:00:54;0.90;99.90
10083;DHT22;5080;48.528;8.078;2023-02-28T05:03:27;1.00;99.90
10083;DHT22;5080;48.528;8.078;2023-02-28T05:05:54;0.90;99.90
10083;DHT22;5080;48.528;8.078;2023-02-28T05:08:21;0.90;99.90
10083;DHT22;5080;48.528;8.078;2023-02-28T05:10:47;0.90;99.90
10083;DHT22;5080;48.528;8.078;2023-02-28T05:13:14;1.00;99.90
10083;DHT22;5080;48.528;8.078;2023-02-28T05:15:42;1.10;99.90
10083;DHT22;5080;48.528;8.078;2023-02-28T05:18:09;1.10;99.90
10083;DHT22;5080;48.528;8.078;2023-02-28T05:20:36;1.10;99.90
10083;DHT22;5080;48.528;8.078;2023-02-28T05:23:03;1.20;99.90
10083;DHT22;5080;48.528;8.078;2023-02-28T05:25:30;1.20;99.90
10083;DHT22;5080;48.528;8.078;2023-02-28T05:27:57;1.10;99.90
10083;DHT22;5080;48.528;8.078;2023-02-28T05:30:24;1.00;99.90
10083;DHT22;5080;48.528;8.078;2023-02-28T05:32:52;0.90;99.90
10083;DHT22;5080;48.528;8.078;2023-02-28T05:35:19;0.90;99.90
10083;DHT22;5080;48.528;8.078;2023-02-28T05:37:46;0.90;99.90
10083;DHT22;5080;48.528;8.078;2023-02-28T05:40:13;0.90;99.90
10083;DHT22;5080;48.528;8.078;2023-02-28T05:42:41;0.90;99.90
10083;DHT22;5080;48.528;8.078;2023-02-28T05:45:09;0.90;99.90
10083;DHT22;5080;48.528;8.078;2023-02-28T05:47:36;0.90;99.90
10083;DHT22;5080;48.528;8.078;2023-02-28T05:50:05;0.90;99.90
10083;DHT22;5080;48.528;8.078;2023-02-28T05:52:32;0.90;99.90
10083;DHT22;5080;48.528;8.078;2023-02-28T05:54:59;1.00;99.90
10083;DHT22;5080;48.528;8.078;2023-02-28T05:57:26;0.90;99.90
10083;DHT22;5080;48.528;8.078;2023-02-28T05:59:52;0.80;99.90
10083;DHT22;5080;48.528;8.078;2023-02-28T06:02:19;0.80;99.90
10083;DHT22;5080;48.528;8.078;2023-02-28T06:04:46;0.70;99.90
10083;DHT22;5080;48.528;8.078;2023-02-28T06:07:14;0.70;99.90
10083;DHT22;5080;48.528;8.078;2023-02-28T06:09:43;0.60;99.90
10083;DHT22;5080;48.528;8.078;2023-02-28T06:12:10;0.60;99.90
10083;DHT22;5080;48.528;8.078;2023-02-28T06:14:37;0.60;99.90
10083;DHT22;5080;48.528;8.078;2023-02-28T06:17:04;0.60;99.90
10083;DHT22;5080;48.528;8.078;2023-02-28T06:19:31;0.60;99.90
10083;DHT22;5080;48.528;8.078;2023-02-28T06:21:58;0.60;99.90
10083;DHT22;5080;48.528;8.078;2023-02-28T06:24:27;0.60;99.90
10083;DHT22;5080;48.528;8.078;2023-02-28T06:26:54;0.80;99.90
10083;DHT22;5080;48.528;8.078;2023-02-28T06:29:21;0.80;99.90
10083;DHT22;5080;48.528;8.078;2023-02-28T06:31:48;0.80;99.90
10083;DHT22;5080;48.528;8.078;2023-02-28T06:34:15;0.70;99.90
10083;DHT22;5080;48.528;8.078;2023-02-28T06:36:43;0.80;99.90
10083;DHT22;5080;48.528;8.078;2023-02-28T06:39:10;0.80;99.90
10083;DHT22;5080;48.528;8.078;2023-02-28T06:41:38;0.80;99.90
10083;DHT22;5080;48.528;8.078;2023-02-28T06:44:09;0.80;99.90
10083;DHT22;5080;48.528;8.078;2023-02-28T06:46:39;0.80;99.90
10083;DHT22;5080;48.528;8.078;2023-02-28T06:49:06;0.80;99.90
10083;DHT22;5080;48.528;8.078;2023-02-28T06:51:35;0.80;99.90
10083;DHT22;5080;48.528;8.078;2023-02-28T06:54:02;0.80;99.90
10083;DHT22;5080;48.528;8.078;2023-02-28T06:56:29;0.80;99.90
10083;DHT22;5080;48.528;8.078;2023-02-28T06:58:57;0.80;99.90
10083;DHT22;5080;48.528;8.078;2023-02-28T07:01:24;0.80;99.90
10083;DHT22;5080;48.528;8.078;2023-02-28T07:03:53;0.80;99.90
10083;DHT22;5080;48.528;8.078;2023-02-28T07:06:21;0.80;99.90
10083;DHT22;5080;48.528;8.078;2023-02-28T07:08:49;0.90;99.90
10083;DHT22;5080;48.528;8.078;2023-02-28T07:11:17;0.90;99.90
10083;DHT22;5080;48.528;8.078;2023-02-28T07:13:44;0.90;99.90
10083;DHT22;5080;48.528;8.078;2023-02-28T07:16:14;0.90;99.90
10083;DHT22;5080;48.528;8.078;2023-02-28T07:18:41;0.90;99.90
10083;DHT22;5080;48.528;8.078;2023-02-28T07:21:09;0.90;99.90
10083;DHT22;5080;48.528;8.078;2023-02-28T07:23:37;0.90;99.90
10083;DHT22;5080;48.528;8.078;2023-02-28T07:26:05;1.10;99.90
10083;DHT22;5080;48.528;8.078;2023-02-28T07:28:32;1.10;99.90
10083;DHT22;5080;48.528;8.078;2023-02-28T07:31:03;1.10;99.90
10083;DHT22;5080;48.528;8.078;2023-02-28T07:33:32;1.10;99.90
10083;DHT22;5080;48.528;8.078;2023-02-28T07:36:04;1.20;99.90
10083;DHT22;5080;48.528;8.078;2023-02-28T07:38:33;1.20;99.90
10083;DHT22;5080;48.528;8.078;2023-02-28T07:41:00;1.20;99.90
10083;DHT22;5080;48.528;8.078;2023-02-28T07:43:29;1.10;99.90
10083;DHT22;5080;48.528;8.078;2023-02-28T07:46:01;1.00;99.90
10083;DHT22;5080;48.528;8.078;2023-02-28T07:48:28;1.00;99.90
10083;DHT22;5080;48.528;8.078;2023-02-28T07:50:56;1.00;99.90
10083;DHT22;5080;48.528;8.078;2023-02-28T07:53:23;1.10;99.90
10083;DHT22;5080;48.528;8.078;2023-02-28T07:55:50;1.20;99.90
10083;DHT22;5080;48.528;8.078;2023-02-28T07:58:17;1.20;99.90
10083;DHT22;5080;48.528;8.078;2023-02-28T08:00:44;1.30;99.90
10083;DHT22;5080;48.528;8.078;2023-02-28T08:03:12;1.30;99.90
10083;DHT22;5080;48.528;8.078;2023-02-28T08:05:39;1.30;99.90
10083;DHT22;5080;48.528;8.078;2023-02-28T08:08:07;1.30;99.90
10083;DHT22;5080;48.528;8.078;2023-02-28T08:10:34;1.30;99.90
10083;DHT22;5080;48.528;8.078;2023-02-28T08:13:01;1.30;99.90
10083;DHT22;5080;48.528;8.078;2023-02-28T08:15:28;1.40;99.90
10083;DHT22;5080;48.528;8.078;2023-02-28T08:17:55;1.40;99.90
10083;DHT22;5080;48.528;8.078;2023-02-28T08:20:23;1.20;99.90
10083;DHT22;5080;48.528;8.078;2023-02-28T08:22:50;1.20;99.90
10083;DHT22;5080;48.528;8.078;2023-02-28T08:25:18;1.20;99.90
10083;DHT22;5080;48.528;8.078;2023-02-28T08:27:45;1.20;99.90
10083;DHT22;5080;48.528;8.078;2023-02-28T08:30:14;1.20;99.90
10083;DHT22;5080;48.528;8.078;2023-02-28T08:32:41;1.20;99.90
10083;DHT22;5080;48.528;8.078;2023-02-28T08:35:08;1.30;99.90
10083;DHT22;5080;48.528;8.078;2023-02-28T08:37:35;1.30;99.90
10083;DHT22;5080;48.528;8.078;2023-02-28T08:40:03;1.30;99.90
10083;DHT22;5080;48.528;8.078;2023-02-28T08:42:32;1.30;99.90
10083;DHT22;5080;48.528;8.078;2023-02-28T08:44:59;1.30;99.90
10083;DHT22;5080;48.528;8.078;2023-02-28T08:47:26;1.30;99.90
10083;DHT22;5080;48.528;8.078;2023-02-28T08:49:52;1.40;99.90
10083;DHT22;5080;48.528;8.078;2023-02-28T08:52:19;1.40;99.90
10083;DHT22;5080;48.528;8.078;2023-02-28T08:54:46;1.50;99.90
10083;DHT22;5080;48.528;8.078;2023-02-28T08:57:13;1.70;99.90
10083;DHT22;5080;48.528;8.078;2023-02-28T08:59:41;1.80;99.90
10083;DHT22;5080;48.528;8.078;2023-02-28T09:02:09;1.90;99.90
10083;DHT22;5080;48.528;8.078;2023-02-28T09:04:38;1.80;99.90
10083;DHT22;5080;48.528;8.078;2023-02-28T09:07:05;1.80;99.90
10083;DHT22;5080;48.528;8.078;2023-02-28T09:09:32;1.80;99.90
10083;DHT22;5080;48.528;8.078;2023-02-28T09:11:59;1.90;99.90
10083;DHT22;5080;48.528;8.078;2023-02-28T09:14:26;2.00;99.90
10083;DHT22;5080;48.528;8.078;2023-02-28T09:16:54;2.20;99.90
10083;DHT22;5080;48.528;8.078;2023-02-28T09:19:21;2.30;99.90
10083;DHT22;5080;48.528;8.078;2023-02-28T09:21:48;2.40;99.90
10083;DHT22;5080;48.528;8.078;2023-02-28T09:24:15;2.40;99.90
10083;DHT22;5080;48.528;8.078;2023-02-28T09:26:42;2.20;99.90
10083;DHT22;5080;48.528;8.078;2023-02-28T09:29:09;2.30;99.90
10083;DHT22;5080;48.528;8.078;2023-02-28T09:31:38;2.40;99.90
10083;DHT22;5080;48.528;8.078;2023-02-28T09:34:06;2.50;99.90
10083;DHT22;5080;48.528;8.078;2023-02-28T09:36:33;2.60;99.90
10083;DHT22;5080;48.528;8.078;2023-02-28T09:39:00;2.70;99.90
10083;DHT22;5080;48.528;8.078;2023-02-28T09:41:30;2.90;99.90
10083;DHT22;5080;48.528;8.078;2023-02-28T09:44:02;2.90;99.90
10083;DHT22;5080;48.528;8.078;2023-02-28T09:46:32;2.80;99.90
10083;DHT22;5080;48.528;8.078;2023-02-28T09:49:02;2.90;99.90
10083;DHT22;5080;48.528;8.078;2023-02-28T09:51:40;2.90;99.90
10083;DHT22;5080;48.528;8.078;2023-02-28T09:54:14;3.00;99.90
10083;DHT22;5080;48.528;8.078;2023-02-28T09:56:45;3.10;99.90
10083;DHT22;5080;48.528;8.078;2023-02-28T09:59:17;3.20;99.90
10083;DHT22;5080;48.528;8.078;2023-02-28T10:01:53;3.30;99.90
10083;DHT22;5080;48.528;8.078;2023-02-28T10:04:36;3.40;99.90
10083;DHT22;5080;48.528;8.078;2023-02-28T10:07:15;3.50;99.90
10083;DHT22;5080;48.528;8.078;2023-02-28T10:09:45;3.50;99.90
10083;DHT22;5080;48.528;8.078;2023-02-28T10:12:15;3.60;99.90
10083;DHT22;5080;48.528;8.078;2023-02-28T10:14:45;3.50;99.90
10083;DHT22;5080;48.528;8.078;2023-02-28T10:17:16;3.50;99.90
10083;DHT22;5080;48.528;8.078;2023-02-28T10:19:53;3.60;99.90
10083;DHT22;5080;48.528;8.078;2023-02-28T10:22:26;3.60;99.90
10083;DHT22;5080;48.528;8.078;2023-02-28T10:24:55;3.70;99.90
10083;DHT22;5080;48.528;8.078;2023-02-28T10:27:29;3.70;99.90
10083;DHT22;5080;48.528;8.078;2023-02-28T10:29:58;3.80;99.90
10083;DHT22;5080;48.528;8.078;2023-02-28T10:32:27;3.80;99.90
10083;DHT22;5080;48.528;8.078;2023-02-28T10:34:57;3.80;99.90
10083;DHT22;5080;48.528;8.078;2023-02-28T10:37:27;3.80;99.90
10083;DHT22;5080;48.528;8.078;2023-02-28T10:39:54;3.90;99.90
10083;DHT22;5080;48.528;8.078;2023-02-28T10:42:24;3.80;99.90
10083;DHT22;5080;48.528;8.078;2023-02-28T10:45:12;3.80;99.90
10083;DHT22;5080;48.528;8.078;2023-02-28T10:47:49;3.90;99.90
10083;DHT22;5080;48.528;8.078;2023-02-28T10:50:42;4.00;99.90
10083;DHT22;5080;48.528;8.078;2023-02-28T10:53:30;3.90;99.90
10083;DHT22;5080;48.528;8.078;2023-02-28T10:55:59;3.90;99.90
10083;DHT22;5080;48.528;8.078;2023-02-28T10:58:29;4.00;99.90
10083;DHT22;5080;48.528;8.078;2023-02-28T11:00:56;4.10;99.90
10083;DHT22;5080;48.528;8.078;2023-02-28T11:03:29;4.30;99.90
10083;DHT22;5080;48.528;8.078;2023-02-28T11:05:57;4.30;99.90
10083;DHT22;5080;48.528;8.078;2023-02-28T11:08:25;4.30;99.90
10083;DHT22;5080;48.528;8.078;2023-02-28T11:10:57;4.40;99.90
10083;DHT22;5080;48.528;8.078;2023-02-28T11:13:27;4.50;99.90
10083;DHT22;5080;48.528;8.078;2023-02-28T11:15:56;4.40;99.90
10083;DHT22;5080;48.528;8.078;2023-02-28T11:18:27;4.40;99.90
10083;DHT22;5080;48.528;8.078;2023-02-28T11:20:58;4.40;99.90
10083;DHT22;5080;48.528;8.078;2023-02-28T11:23:30;4.40;99.90
10083;DHT22;5080;48.528;8.078;2023-02-28T11:26:00;4.40;99.90
10083;DHT22;5080;48.528;8.078;2023-02-28T11:28:30;4.50;99.90
10083;DHT22;5080;48.528;8.078;2023-02-28T11:31:04;4.50;99.90
10083;DHT22;5080;48.528;8.078;2023-02-28T11:33:37;4.60;99.90
10083;DHT22;5080;48.528;8.078;2023-02-28T11:36:10;4.60;99.90
10083;DHT22;5080;48.528;8.078;2023-02-28T11:38:40;4.50;99.90
10083;DHT22;5080;48.528;8.078;2023-02-28T11:41:18;4.50;99.90
10083;DHT22;5080;48.528;8.078;2023-02-28T11:44:01;4.60;99.90
10083;DHT22;5080;48.528;8.078;2023-02-28T11:46:35;4.70;99.90
10083;DHT22;5080;48.528;8.078;2023-02-28T11:49:20;4.60;99.90
10083;DHT22;5080;48.528;8.078;2023-02-28T11:51:53;4.70;99.90
10083;DHT22;5080;48.528;8.078;2023-02-28T11:54:58;4.70;99.90
10083;DHT22;5080;48.528;8.078;2023-02-28T11:57:36;4.80;99.90
10083;DHT22;5080;48.528;8.078;2023-02-28T12:00:19;4.80;99.90
10083;DHT22;5080;48.528;8.078;2023-02-28T12:02:56;4.80;99.90
10083;DHT22;5080;48.528;8.078;2023-02-28T12:05:32;5.00;99.90
10083;DHT22;5080;48.528;8.078;2023-02-28T12:08:09;5.20;99.90
10083;DHT22;5080;48.528;8.078;2023-02-28T12:10:48;5.30;99.90
10083;DHT22;5080;48.528;8.078;2023-02-28T12:13:20;5.20;99.90
10083;DHT22;5080;48.528;8.078;2023-02-28T12:16:13;5.20;99.90
10083;DHT22;5080;48.528;8.078;2023-02-28T12:19:01;5.20;99.90
10083;DHT22;5080;48.528;8.078;2023-02-28T12:21:45;5.20;99.90
10083;DHT22;5080;48.528;8.078;2023-02-28T12:27:13;5.20;99.90
10083;DHT22;5080;48.528;8.078;2023-02-28T12:29:47;5.40;99.90
10083;DHT22;5080;48.528;8.078;2023-02-28T12:32:20;5.40;99.90
10083;DHT22;5080;48.528;8.078;2023-02-28T12:34:50;5.50;99.90
10083;DHT22;5080;48.528;8.078;2023-02-28T12:37:22;5.50;99.90
10083;DHT22;5080;48.528;8.078;2023-02-28T12:39:54;5.50;99.90
10083;DHT22;5080;48.528;8.078;2023-02-28T12:42:26;5.60;99.90
10083;DHT22;5080;48.528;8.078;2023-02-28T12:44:58;5.80;99.90
10083;DHT22;5080;48.528;8.078;2023-02-28T12:47:25;5.90;99.90
10083;DHT22;5080;48.528;8.078;2023-02-28T12:49:56;5.90;99.90
10083;DHT22;5080;48.528;8.078;2023-02-28T12:52:30;5.90;99.90
10083;DHT22;5080;48.528;8.078;2023-02-28T12:55:06;6.00;99.90
10083;DHT22;5080;48.528;8.078;2023-02-28T12:57:39;6.00;99.90
10083;DHT22;5080;48.528;8.078;2023-02-28T13:00:13;6.30;99.90
10083;DHT22;5080;48.528;8.078;2023-02-28T13:03:01;6.40;99.90
10083;DHT22;5080;48.528;8.078;2023-02-28T13:05:41;6.40;99.90
10083;DHT22;5080;48.528;8.078;2023-02-28T13:08:41;6.40;99.90
10083;DHT22;5080;48.528;8.078;2023-02-28T13:11:24;6.50;99.90
10083;DHT22;5080;48.528;8.078;2023-02-28T13:13:59;6.50;99.90
10083;DHT22;5080;48.528;8.078;2023-02-28T13:16:27;6.60;99.90
10083;DHT22;5080;48.528;8.078;2023-02-28T13:19:08;6.70;99.90
10083;DHT22;5080;48.528;8.078;2023-02-28T13:21:42;6.80;99.90
10083;DHT22;5080;48.528;8.078;2023-02-28T13:24:10;6.90;99.90
10083;DHT22;5080;48.528;8.078;2023-02-28T13:29:52;7.00;99.90
10083;DHT22;5080;48.528;8.078;2023-02-28T13:35:38;6.90;99.90
10083;DHT22;5080;48.528;8.078;2023-02-28T13:38:16;7.10;99.90
10083;DHT22;5080;48.528;8.078;2023-02-28T13:40:44;7.20;99.90
10083;DHT22;5080;48.528;8.078;2023-02-28T13:43:10;7.30;99.90
10083;DHT22;5080;48.528;8.078;2023-02-28T13:45:39;7.20;99.90
10083;DHT22;5080;48.528;8.078;2023-02-28T13:48:27;7.30;99.90
10083;DHT22;5080;48.528;8.078;2023-02-28T13:50:55;7.40;99.90
10083;DHT22;5080;48.528;8.078;2023-02-28T13:53:47;7.60;99.90
10083;DHT22;5080;48.528;8.078;2023-02-28T13:56:30;7.60;99.90
10083;DHT22;5080;48.528;8.078;2023-02-28T13:59:06;7.70;99.90
10083;DHT22;5080;48.528;8.078;2023-02-28T14:01:57;7.80;99.90
10083;DHT22;5080;48.528;8.078;2023-02-28T14:04:53;7.80;99.90
10083;DHT22;5080;48.528;8.078;2023-02-28T14:07:27;7.80;99.90
10083;DHT22;5080;48.528;8.078;2023-02-28T14:10:01;7.50;99.90
10083;DHT22;5080;48.528;8.078;2023-02-28T14:12:57;7.40;99.90
10083;DHT22;5080;48.528;8.078;2023-02-28T14:15:36;7.40;99.90
10083;DHT22;5080;48.528;8.078;2023-02-28T14:18:16;7.30;99.90
10083;DHT22;5080;48.528;8.078;2023-02-28T14:20:45;7.20;99.90
10083;DHT22;5080;48.528;8.078;2023-02-28T14:26:05;7.40;99.90
10083;DHT22;5080;48.528;8.078;2023-02-28T14:28:47;7.50;99.90
10083;DHT22;5080;48.528;8.078;2023-02-28T14:31:21;7.50;99.90
10083;DHT22;5080;48.528;8.078;2023-02-28T14:34:19;7.50;99.90
10083;DHT22;5080;48.528;8.078;2023-02-28T14:36:48;7.60;99.90
10083;DHT22;5080;48.528;8.078;2023-02-28T14:39:20;7.70;99.90
10083;DHT22;5080;48.528;8.078;2023-02-28T14:41:48;7.90;99.90
10083;DHT22;5080;48.528;8.078;2023-02-28T14:44:18;8.00;99.90
10083;DHT22;5080;48.528;8.078;2023-02-28T14:46:46;8.20;99.90
10083;DHT22;5080;48.528;8.078;2023-02-28T14:49:19;8.30;99.90
10083;DHT22;5080;48.528;8.078;2023-02-28T14:51:48;8.50;99.90
10083;DHT22;5080;48.528;8.078;2023-02-28T14:54:16;8.60;99.90
10083;DHT22;5080;48.528;8.078;2023-02-28T14:56:49;8.50;99.90
10083;DHT22;5080;48.528;8.078;2023-02-28T14:59:34;8.60;99.90
10083;DHT22;5080;48.528;8.078;2023-02-28T15:02:19;8.80;99.90
10083;DHT22;5080;48.528;8.078;2023-02-28T15:04:55;8.90;99.90
10083;DHT22;5080;48.528;8.078;2023-02-28T15:07:23;9.10;99.90
10083;DHT22;5080;48.528;8.078;2023-02-28T15:10:27;9.10;99.90
10083;DHT22;5080;48.528;8.078;2023-02-28T15:12:57;8.80;99.90
10083;DHT22;5080;48.528;8.078;2023-02-28T15:15:27;8.50;99.90
10083;DHT22;5080;48.528;8.078;2023-02-28T15:18:01;8.50;99.90
10083;DHT22;5080;48.528;8.078;2023-02-28T15:20:32;8.50;99.90
10083;DHT22;5080;48.528;8.078;2023-02-28T15:23:01;8.40;99.90
10083;DHT22;5080;48.528;8.078;2023-02-28T15:25:28;8.30;99.90
10083;DHT22;5080;48.528;8.078;2023-02-28T15:27:56;8.30;99.90
10083;DHT22;5080;48.528;8.078;2023-02-28T15:30:26;8.20;99.90
10083;DHT22;5080;48.528;8.078;2023-02-28T15:33:19;8.30;99.90
10083;DHT22;5080;48.528;8.078;2023-02-28T15:35:47;8.40;99.90
10083;DHT22;5080;48.528;8.078;2023-02-28T15:38:17;8.50;99.90
10083;DHT22;5080;48.528;8.078;2023-02-28T15:40:49;8.60;99.90
10083;DHT22;5080;48.528;8.078;2023-02-28T15:43:23;8.60;99.90
10083;DHT22;5080;48.528;8.078;2023-02-28T15:45:52;8.60;99.90
10083;DHT22;5080;48.528;8.078;2023-02-28T15:48:23;8.60;99.90
10083;DHT22;5080;48.528;8.078;2023-02-28T15:50:54;8.50;99.90
10083;DHT22;5080;48.528;8.078;2023-02-28T15:53:25;8.50;99.90
10083;DHT22;5080;48.528;8.078;2023-02-28T15:55:55;8.50;99.90
10083;DHT22;5080;48.528;8.078;2023-02-28T15:58:24;8.60;99.90
10083;DHT22;5080;48.528;8.078;2023-02-28T16:01:06;8.60;99.90
10083;DHT22;5080;48.528;8.078;2023-02-28T16:03:42;8.50;99.90
10083;DHT22;5080;48.528;8.078;2023-02-28T16:06:28;8.40;99.90
10083;DHT22;5080;48.528;8.078;2023-02-28T16:08:57;8.40;99.90
10083;DHT22;5080;48.528;8.078;2023-02-28T16:11:24;8.30;99.90
10083;DHT22;5080;48.528;8.078;2023-02-28T16:13:51;8.30;99.90
10083;DHT22;5080;48.528;8.078;2023-02-28T16:16:19;8.20;99.90
10083;DHT22;5080;48.528;8.078;2023-02-28T16:18:47;8.20;99.90
10083;DHT22;5080;48.528;8.078;2023-02-28T16:21:13;8.20;99.90
10083;DHT22;5080;48.528;8.078;2023-02-28T16:23:42;8.20;99.90
10083;DHT22;5080;48.528;8.078;2023-02-28T16:26:16;8.10;99.90
10083;DHT22;5080;48.528;8.078;2023-02-28T16:28:44;8.10;99.90
10083;DHT22;5080;48.528;8.078;2023-02-28T16:31:12;8.00;99.90
10083;DHT22;5080;48.528;8.078;2023-02-28T16:33:42;8.00;99.90
10083;DHT22;5080;48.528;8.078;2023-02-28T16:36:12;7.90;99.90
10083;DHT22;5080;48.528;8.078;2023-02-28T16:38:39;7.80;99.90
10083;DHT22;5080;48.528;8.078;2023-02-28T16:41:12;7.70;99.90
10083;DHT22;5080;48.528;8.078;2023-02-28T16:43:42;7.70;99.90
10083;DHT22;5080;48.528;8.078;2023-02-28T16:46:11;7.60;99.90
10083;DHT22;5080;48.528;8.078;2023-02-28T16:48:38;7.60;99.90